sensor_id;sensor_type;location;lat;lon;timestamp;pressure;altitude;pressure_sealevel;temperature;humidity
54882;BME280;40775;51.448;4.742;2023-03-14T00:01:15;98926.38;;;12.25;100.00
54882;BME280;40775;51.448;4.742;2023-03-14T00:03:43;98916.88;;;12.16;100.00
54882;BME280;40775;51.448;4.742;2023-03-14T00:06:12;98915.13;;;12.17;100.00
54882;BME280;40775;51.448;4.742;2023-03-14T00:08:42;98907.34;;;12.11;100.00
54882;BME280;40775;51.448;4.742;2023-03-14T00:11:17;98919.53;;;12.15;100.00
54882;BME280;40775;51.448;4.742;2023-03-14T00:13:50;98917.81;;;12.14;100.00
54882;BME280;40775;51.448;4.742;2023-03-14T00:16:18;98921.13;;;12.23;100.00
54882;BME280;40775;51.448;4.742;2023-03-14T00:18:45;98926.38;;;12.25;100.00
54882;BME280;40775;51.448;4.742;2023-03-14T00:21:13;98924.50;;;12.31;100.00
54882;BME280;40775;51.448;4.742;2023-03-14T00:23:41;98926.53;;;12.16;100.00
54882;BME280;40775;51.448;4.742;2023-03-14T00:26:12;98920.34;;;12.18;100.00
54882;BME280;40775;51.448;4.742;2023-03-14T00:28:41;98921.16;;;12.22;100.00
54882;BME280;40775;51.448;4.742;2023-03-14T00:31:11;98925.59;;;12.18;100.00
54882;BME280;40775;51.448;4.742;2023-03-14T00:33:38;98930.13;;;12.12;100.00
54882;BME280;40775;51.448;4.742;2023-03-14T00:36:09;98921.09;;;12.25;100.00
54882;BME280;40775;51.448;4.742;2023-03-14T00:38:37;98928.16;;;12.23;100.00
54882;BME280;40775;51.448;4.742;2023-03-14T00:41:11;98924.44;;;12.36;100.00
54882;BME280;40775;51.448;4.742;2023-03-14T00:43:39;98915.94;;;12.19;100.00
54882;BME280;40775;51.448;4.742;2023-03-14T00:46:06;98931.81;;;12.14;100.00
54882;BME280;40775;51.448;4.742;2023-03-14T00:48:34;98919.53;;;12.15;100.00
54882;BME280;40775;51.448;4.742;2023-03-14T00:51:03;98922.13;;;12.16;100.00
54882;BME280;40775;51.448;4.742;2023-03-14T00:53:30;98922.34;;;12.05;100.00
54882;BME280;40775;51.448;4.742;2023-03-14T00:56:04;98924.13;;;12.02;100.00
54882;BME280;40775;51.448;4.742;2023-03-14T00:58:31;98917.03;;;12.07;100.00
54882;BME280;40775;51.448;4.742;2023-03-14T01:00:58;98911.56;;;12.19;100.00
54882;BME280;40775;51.448;4.742;2023-03-14T01:03:25;98908.03;;;12.20;100.00
54882;BME280;40775;51.448;4.742;2023-03-14T01:05:52;98902.84;;;12.17;100.00
54882;BME280;40775;51.448;4.742;2023-03-14T01:08:19;98916.00;;;12.16;100.00
54882;BME280;40775;51.448;4.742;2023-03-14T01:10:46;98896.38;;;12.35;100.00
54882;BME280;40775;51.448;4.742;2023-03-14T01:13:13;98901.75;;;12.27;100.00
54882;BME280;40775;51.448;4.742;2023-03-14T01:15:40;98908.09;;;12.17;100.00
54882;BME280;40775;51.448;4.742;2023-03-14T01:18:07;98897.59;;;12.16;100.00
54882;BME280;40775;51.448;4.742;2023-03-14T01:20:37;98904.63;;;12.15;100.00
54882;BME280;40775;51.448;4.742;2023-03-14T01:23:04;98897.59;;;12.16;100.00
54882;BME280;40775;51.448;4.742;2023-03-14T01:25:31;98898.47;;;12.16;100.00
54882;BME280;40775;51.448;4.742;2023-03-14T01:27:58;98903.84;;;12.10;100.00
54882;BME280;40775;51.448;4.742;2023-03-14T01:30:25;98913.59;;;12.02;100.00
54882;BME280;40775;51.448;4.742;2023-03-14T01:32:52;98907.38;;;12.07;100.00
54882;BME280;40775;51.448;4.742;2023-03-14T01:35:19;98911.97;;;11.95;100.00
54882;BME280;40775;51.448;4.742;2023-03-14T01:37:46;98897.84;;;12.00;100.00
54882;BME280;40775;51.448;4.742;2023-03-14T01:40:13;98904.03;;;11.98;100.00
54882;BME280;40775;51.448;4.742;2023-03-14T01:42:55;98897.94;;;11.96;100.00
54882;BME280;40775;51.448;4.742;2023-03-14T01:52:13;98889.81;;;12.10;100.00
54882;BME280;40775;51.448;4.742;2023-03-14T01:54:47;98893.16;;;12.19;100.00
54882;BME280;40775;51.448;4.742;2023-03-14T01:57:25;98889.91;;;12.03;100.00
54882;BME280;40775;51.448;4.742;2023-03-14T02:00:03;98881.13;;;12.04;100.00
54882;BME280;40775;51.448;4.742;2023-03-14T02:02:41;98872.38;;;12.02;100.00
54882;BME280;40775;51.448;4.742;2023-03-14T02:05:10;98875.97;;;11.98;100.00
54882;BME280;40775;51.448;4.742;2023-03-14T02:07:56;98878.84;;;11.85;100.00
54882;BME280;40775;51.448;4.742;2023-03-14T02:10:35;98865.72;;;11.83;100.00
54882;BME280;40775;51.448;4.742;2023-03-14T02:13:05;98852.66;;;11.79;100.00
54882;BME280;40775;51.448;4.742;2023-03-14T02:15:33;98864.09;;;11.73;100.00
54882;BME280;40775;51.448;4.742;2023-03-14T02:18:03;98867.72;;;11.66;100.00
54882;BME280;40775;51.448;4.742;2023-03-14T02:21:19;98875.47;;;11.73;100.00
54882;BME280;40775;51.448;4.742;2023-03-14T02:24:20;98878.19;;;11.69;100.00
54882;BME280;40775;51.448;4.742;2023-03-14T02:27:13;98867.59;;;11.73;100.00
54882;BME280;40775;51.448;4.742;2023-03-14T02:29:51;98874.56;;;11.79;100.00
54882;BME280;40775;51.448;4.742;2023-03-14T02:32:21;98870.22;;;11.73;100.00
54882;BME280;40775;51.448;4.742;2023-03-14T02:34:54;98864.94;;;11.75;100.00
54882;BME280;40775;51.448;4.742;2023-03-14T02:37:27;98858.97;;;11.65;100.00
54882;BME280;40775;51.448;4.742;2023-03-14T02:39:57;98853.53;;;11.76;100.00
54882;BME280;40775;51.448;4.742;2023-03-14T02:42:24;98844.69;;;11.83;100.00
54882;BME280;40775;51.448;4.742;2023-03-14T02:47:56;98840.59;;;11.64;100.00
54882;BME280;40775;51.448;4.742;2023-03-14T02:50:28;98844.84;;;11.71;100.00
54882;BME280;40775;51.448;4.742;2023-03-14T02:52:57;98836.03;;;11.75;100.00
54882;BME280;40775;51.448;4.742;2023-03-14T02:55:24;98838.69;;;11.72;100.00
54882;BME280;40775;51.448;4.742;2023-03-14T02:57:53;98844.94;;;11.66;100.00
54882;BME280;40775;51.448;4.742;2023-03-14T03:00:20;98852.84;;;11.65;100.00
54882;BME280;40775;51.448;4.742;2023-03-14T03:02:47;98852.00;;;11.63;100.00
54882;BME280;40775;51.448;4.742;2023-03-14T03:05:15;98852.00;;;11.63;100.00
54882;BME280;40775;51.448;4.742;2023-03-14T03:07:42;98849.44;;;11.58;100.00
54882;BME280;40775;51.448;4.742;2023-03-14T03:10:09;98844.97;;;11.63;100.00
54882;BME280;40775;51.448;4.742;2023-03-14T03:12:36;98843.16;;;11.67;100.00
54882;BME280;40775;51.448;4.742;2023-03-14T03:15:04;98845.00;;;11.62;100.00
54882;BME280;40775;51.448;4.742;2023-03-14T03:17:31;98844.09;;;11.64;100.00
54882;BME280;40775;51.448;4.742;2023-03-14T03:19:58;98844.97;;;11.65;100.00
54882;BME280;40775;51.448;4.742;2023-03-14T03:22:25;98839.47;;;11.77;100.00
54882;BME280;40775;51.448;4.742;2023-03-14T03:24:52;98838.09;;;11.56;100.00
54882;BME280;40775;51.448;4.742;2023-03-14T03:27:19;98843.28;;;11.61;100.00
54882;BME280;40775;51.448;4.742;2023-03-14T03:29:46;98846.78;;;11.60;100.00
54882;BME280;40775;51.448;4.742;2023-03-14T03:32:14;98843.44;;;11.52;100.00
54882;BME280;40775;51.448;4.742;2023-03-14T03:34:41;98830.00;;;11.68;100.00
54882;BME280;40775;51.448;4.742;2023-03-14T03:37:08;98824.97;;;11.56;100.00
54882;BME280;40775;51.448;4.742;2023-03-14T03:39:35;98827.72;;;11.47;100.00
54882;BME280;40775;51.448;4.742;2023-03-14T03:42:02;98826.81;;;11.51;100.00
54882;BME280;40775;51.448;4.742;2023-03-14T03:44:29;98815.56;;;11.40;100.00
54882;BME280;40775;51.448;4.742;2023-03-14T03:46:56;98823.31;;;11.49;100.00
54882;BME280;40775;51.448;4.742;2023-03-14T03:49:23;98834.16;;;11.28;100.00
54882;BME280;40775;51.448;4.742;2023-03-14T03:51:50;98849.91;;;11.29;100.00
54882;BME280;40775;51.448;4.742;2023-03-14T03:54:17;98850.75;;;11.31;100.00
54882;BME280;40775;51.448;4.742;2023-03-14T03:56:44;98860.31;;;11.34;100.00
54882;BME280;40775;51.448;4.742;2023-03-14T03:59:11;98852.44;;;11.34;100.00
54882;BME280;40775;51.448;4.742;2023-03-14T04:01:39;98841.09;;;11.32;100.00
54882;BME280;40775;51.448;4.742;2023-03-14T04:04:06;98852.31;;;11.41;100.00
54882;BME280;40775;51.448;4.742;2023-03-14T04:06:34;98854.06;;;11.42;100.00
54882;BME280;40775;51.448;4.742;2023-03-14T04:09:01;98842.72;;;11.40;100.00
54882;BME280;40775;51.448;4.742;2023-03-14T04:11:28;98845.53;;;11.28;100.00
54882;BME280;40775;51.448;4.742;2023-03-14T04:13:55;98843.81;;;11.26;100.00
54882;BME280;40775;51.448;4.742;2023-03-14T04:16:25;98837.63;;;11.30;100.00
54882;BME280;40775;51.448;4.742;2023-03-14T04:18:53;98828.00;;;11.30;100.00
54882;BME280;40775;51.448;4.742;2023-03-14T04:21:20;98838.50;;;11.30;100.00
54882;BME280;40775;51.448;4.742;2023-03-14T04:23:47;98840.22;;;11.31;100.00
54882;BME280;40775;51.448;4.742;2023-03-14T04:26:14;98845.44;;;11.34;100.00
54882;BME280;40775;51.448;4.742;2023-03-14T04:28:41;98837.41;;;11.43;100.00
54882;BME280;40775;51.448;4.742;2023-03-14T04:31:17;98836.63;;;11.38;100.00
54882;BME280;40775;51.448;4.742;2023-03-14T04:33:46;98843.75;;;11.30;100.00
54882;BME280;40775;51.448;4.742;2023-03-14T04:36:14;98840.94;;;11.41;100.00
54882;BME280;40775;51.448;4.742;2023-03-14T04:38:41;98843.75;;;11.30;100.00
54882;BME280;40775;51.448;4.742;2023-03-14T04:41:08;98844.63;;;11.29;100.00
54882;BME280;40775;51.448;4.742;2023-03-14T04:43:35;98844.66;;;11.28;100.00
54882;BME280;40775;51.448;4.742;2023-03-14T04:46:02;98846.34;;;11.32;100.00
54882;BME280;40775;51.448;4.742;2023-03-14T04:48:29;98858.63;;;11.31;100.00
54882;BME280;40775;51.448;4.742;2023-03-14T04:50:56;98853.25;;;11.39;100.00
54882;BME280;40775;51.448;4.742;2023-03-14T04:53:23;98844.53;;;11.35;100.00
54882;BME280;40775;51.448;4.742;2023-03-14T04:55:54;98844.63;;;11.29;100.00
54882;BME280;40775;51.448;4.742;2023-03-14T04:58:29;98835.03;;;11.28;100.00
54882;BME280;40775;51.448;4.742;2023-03-14T05:01:03;98840.25;;;11.30;100.00
54882;BME280;40775;51.448;4.742;2023-03-14T05:03:30;98837.63;;;11.30;100.00
54882;BME280;40775;51.448;4.742;2023-03-14T05:05:57;98828.81;;;11.34;100.00
54882;BME280;40775;51.448;4.742;2023-03-14T05:08:25;98835.91;;;11.29;100.00
54882;BME280;40775;51.448;4.742;2023-03-14T05:10:56;98821.81;;;11.33;100.00
54882;BME280;40775;51.448;4.742;2023-03-14T05:13:23;98839.34;;;11.32;100.00
54882;BME280;40775;51.448;4.742;2023-03-14T05:15:51;98827.19;;;11.25;100.00
54882;BME280;40775;51.448;4.742;2023-03-14T05:18:18;98826.34;;;11.23;100.00
54882;BME280;40775;51.448;4.742;2023-03-14T05:20:45;98826.31;;;11.26;100.00
54882;BME280;40775;51.448;4.742;2023-03-14T05:23:12;98813.19;;;11.25;100.00
54882;BME280;40775;51.448;4.742;2023-03-14T05:25:39;98817.59;;;11.21;100.00
54882;BME280;40775;51.448;4.742;2023-03-14T05:28:06;98822.78;;;11.27;100.00
54882;BME280;40775;51.448;4.742;2023-03-14T05:30:36;98832.50;;;11.19;100.00
54882;BME280;40775;51.448;4.742;2023-03-14T05:33:06;98819.31;;;11.25;100.00
54882;BME280;40775;51.448;4.742;2023-03-14T05:35:34;98821.97;;;11.21;100.00
54882;BME280;40775;51.448;4.742;2023-03-14T05:38:01;98829.88;;;11.19;100.00
54882;BME280;40775;51.448;4.742;2023-03-14T05:40:28;98823.69;;;11.26;100.00
54882;BME280;40775;51.448;4.742;2023-03-14T05:42:55;98822.81;;;11.26;100.00
54882;BME280;40775;51.448;4.742;2023-03-14T05:45:22;98834.25;;;11.20;100.00
54882;BME280;40775;51.448;4.742;2023-03-14T05:47:49;98816.72;;;11.24;100.00
54882;BME280;40775;51.448;4.742;2023-03-14T05:50:20;98836.00;;;11.20;100.00
54882;BME280;40775;51.448;4.742;2023-03-14T05:52:48;98833.44;;;11.15;100.00
54882;BME280;40775;51.448;4.742;2023-03-14T05:55:19;98838.53;;;11.29;100.00
54882;BME280;40775;51.448;4.742;2023-03-14T05:57:46;98839.47;;;11.23;100.00
54882;BME280;40775;51.448;4.742;2023-03-14T06:00:14;98840.34;;;11.22;100.00
54882;BME280;40775;51.448;4.742;2023-03-14T06:02:41;98836.84;;;11.23;100.00
54882;BME280;40775;51.448;4.742;2023-03-14T06:05:09;98836.94;;;11.17;100.00
54882;BME280;40775;51.448;4.742;2023-03-14T06:07:36;98833.44;;;11.17;100.00
54882;BME280;40775;51.448;4.742;2023-03-14T06:10:03;98829.00;;;11.20;100.00
54882;BME280;40775;51.448;4.742;2023-03-14T06:12:31;98824.59;;;11.22;100.00
54882;BME280;40775;51.448;4.742;2023-03-14T06:14:58;98829.00;;;11.20;100.00
54882;BME280;40775;51.448;4.742;2023-03-14T06:17:25;98832.50;;;11.19;100.00
54882;BME280;40775;51.448;4.742;2023-03-14T06:19:51;98838.53;;;11.27;100.00
54882;BME280;40775;51.448;4.742;2023-03-14T06:22:18;98840.34;;;11.25;100.00
54882;BME280;40775;51.448;4.742;2023-03-14T06:24:46;98843.91;;;11.18;100.00
54882;BME280;40775;51.448;4.742;2023-03-14T06:27:13;98848.28;;;11.18;100.00
54882;BME280;40775;51.448;4.742;2023-03-14T06:29:40;98852.72;;;11.14;100.00
54882;BME280;40775;51.448;4.742;2023-03-14T06:32:07;98853.56;;;11.16;100.00
54882;BME280;40775;51.448;4.742;2023-03-14T06:34:34;98866.75;;;11.13;100.00
54882;BME280;40775;51.448;4.742;2023-03-14T06:37:01;98902.66;;;11.11;100.00
54882;BME280;40775;51.448;4.742;2023-03-14T06:39:28;98901.97;;;10.97;100.00
54882;BME280;40775;51.448;4.742;2023-03-14T06:41:55;98922.00;;;10.26;100.00
54882;BME280;40775;51.448;4.742;2023-03-14T06:44:22;98943.03;;;10.16;100.00
54882;BME280;40775;51.448;4.742;2023-03-14T06:46:49;98976.81;;;10.51;100.00
54882;BME280;40775;51.448;4.742;2023-03-14T06:49:16;98976.56;;;10.79;100.00
54882;BME280;40775;51.448;4.742;2023-03-14T06:51:43;98965.66;;;11.12;100.00
54882;BME280;40775;51.448;4.742;2023-03-14T06:54:10;98968.22;;;11.85;100.00
54882;BME280;40775;51.448;4.742;2023-03-14T06:56:37;98977.28;;;12.21;100.00
54882;BME280;40775;51.448;4.742;2023-03-14T06:59:04;98976.13;;;11.83;100.00
54882;BME280;40775;51.448;4.742;2023-03-14T07:01:31;98975.63;;;12.17;100.00
54882;BME280;40775;51.448;4.742;2023-03-14T07:04:02;98991.81;;;11.89;100.00
54882;BME280;40775;51.448;4.742;2023-03-14T07:06:30;98991.25;;;12.75;100.00
54882;BME280;40775;51.448;4.742;2023-03-14T07:08:57;98998.97;;;12.86;100.00
54882;BME280;40775;51.448;4.742;2023-03-14T07:11:24;98999.44;;;12.61;100.00
54882;BME280;40775;51.448;4.742;2023-03-14T07:13:51;99027.75;;;11.89;100.00
54882;BME280;40775;51.448;4.742;2023-03-14T07:16:19;99049.94;;;12.82;100.00
54882;BME280;40775;51.448;4.742;2023-03-14T07:18:47;99044.34;;;13.00;100.00
54882;BME280;40775;51.448;4.742;2023-03-14T07:21:16;99038.38;;;12.92;100.00
54882;BME280;40775;51.448;4.742;2023-03-14T07:23:43;99045.97;;;13.07;100.00
54882;BME280;40775;51.448;4.742;2023-03-14T07:26:09;99065.19;;;12.63;100.00
54882;BME280;40775;51.448;4.742;2023-03-14T07:28:37;99070.41;;;13.18;100.00
54882;BME280;40775;51.448;4.742;2023-03-14T07:31:04;99077.75;;;12.98;100.00
54882;BME280;40775;51.448;4.742;2023-03-14T07:33:31;99096.34;;;12.90;100.00
54882;BME280;40775;51.448;4.742;2023-03-14T07:35:58;99104.03;;;13.01;100.00
54882;BME280;40775;51.448;4.742;2023-03-14T07:38:26;99109.44;;;12.93;100.00
54882;BME280;40775;51.448;4.742;2023-03-14T07:41:04;99115.53;;;13.48;100.00
54882;BME280;40775;51.448;4.742;2023-03-14T07:43:32;99118.75;;;12.59;100.00
54882;BME280;40775;51.448;4.742;2023-03-14T07:45:59;99133.22;;;12.89;100.00
54882;BME280;40775;51.448;4.742;2023-03-14T07:48:27;99158.34;;;13.08;100.00
54882;BME280;40775;51.448;4.742;2023-03-14T07:50:55;99157.06;;;12.80;100.00
54882;BME280;40775;51.448;4.742;2023-03-14T07:53:23;99179.56;;;13.00;100.00
54882;BME280;40775;51.448;4.742;2023-03-14T07:55:52;99173.09;;;13.21;100.00
54882;BME280;40775;51.448;4.742;2023-03-14T07:58:20;99177.34;;;13.28;100.00
54882;BME280;40775;51.448;4.742;2023-03-14T08:00:49;99177.06;;;12.93;100.00
54882;BME280;40775;51.448;4.742;2023-03-14T08:03:17;99195.34;;;13.02;100.00
54882;BME280;40775;51.448;4.742;2023-03-14T08:05:47;99195.13;;;12.57;100.00
54882;BME280;40775;51.448;4.742;2023-03-14T08:08:16;99203.25;;;13.00;100.00
54882;BME280;40775;51.448;4.742;2023-03-14T08:10:44;99209.16;;;13.16;100.00
54882;BME280;40775;51.448;4.742;2023-03-14T08:13:11;99210.94;;;13.14;100.00
54882;BME280;40775;51.448;4.742;2023-03-14T08:15:38;99221.78;;;12.96;100.00
54882;BME280;40775;51.448;4.742;2023-03-14T08:18:05;99227.97;;;12.93;100.00
54882;BME280;40775;51.448;4.742;2023-03-14T08:20:33;99236.34;;;12.58;100.00
54882;BME280;40775;51.448;4.742;2023-03-14T08:23:01;99239.31;;;12.35;100.00
54882;BME280;40775;51.448;4.742;2023-03-14T08:25:28;99245.63;;;12.19;100.00
54882;BME280;40775;51.448;4.742;2023-03-14T08:27:56;99260.69;;;12.76;100.00
54882;BME280;40775;51.448;4.742;2023-03-14T08:30:24;99269.13;;;12.36;100.00
54882;BME280;40775;51.448;4.742;2023-03-14T08:32:51;99288.59;;;12.20;100.00
54882;BME280;40775;51.448;4.742;2023-03-14T08:35:20;99286.31;;;12.63;100.00
54882;BME280;40775;51.448;4.742;2023-03-14T08:37:47;99286.25;;;12.67;100.00
54882;BME280;40775;51.448;4.742;2023-03-14T08:40:14;99311.91;;;12.50;100.00
54882;BME280;40775;51.448;4.742;2023-03-14T08:42:43;99312.63;;;12.64;100.00
54882;BME280;40775;51.448;4.742;2023-03-14T08:45:16;99313.69;;;12.48;100.00
54882;BME280;40775;51.448;4.742;2023-03-14T08:47:44;99329.00;;;12.14;100.00
54882;BME280;40775;51.448;4.742;2023-03-14T08:50:12;99341.06;;;12.32;100.00
54882;BME280;40775;51.448;4.742;2023-03-14T08:52:42;99353.44;;;12.97;100.00
54882;BME280;40775;51.448;4.742;2023-03-14T08:55:09;99360.94;;;12.57;100.00
54882;BME280;40775;51.448;4.742;2023-03-14T08:57:37;99363.53;;;12.63;100.00
54882;BME280;40775;51.448;4.742;2023-03-14T09:00:06;99380.84;;;12.81;100.00
54882;BME280;40775;51.448;4.742;2023-03-14T09:02:42;99396.63;;;12.84;100.00
54882;BME280;40775;51.448;4.742;2023-03-14T09:05:11;99393.59;;;13.19;100.00
54882;BME280;40775;51.448;4.742;2023-03-14T09:07:39;99396.47;;;13.61;100.00
54882;BME280;40775;51.448;4.742;2023-03-14T09:10:08;99413.47;;;12.69;100.00
54882;BME280;40775;51.448;4.742;2023-03-14T09:12:36;99416.19;;;12.63;100.00
54882;BME280;40775;51.448;4.742;2023-03-14T09:15:04;99425.28;;;12.33;100.00
54882;BME280;40775;51.448;4.742;2023-03-14T09:17:31;99436.22;;;12.77;100.00
54882;BME280;40775;51.448;4.742;2023-03-14T09:19:58;99444.59;;;12.29;100.00
54882;BME280;40775;51.448;4.742;2023-03-14T09:22:26;99462.47;;;12.83;100.00
54882;BME280;40775;51.448;4.742;2023-03-14T09:24:53;99473.94;;;11.70;100.00
54882;BME280;40775;51.448;4.742;2023-03-14T09:27:20;99486.16;;;11.77;100.00
54882;BME280;40775;51.448;4.742;2023-03-14T09:29:47;99493.97;;;11.94;100.00
54882;BME280;40775;51.448;4.742;2023-03-14T09:32:14;99526.50;;;11.71;100.00
54882;BME280;40775;51.448;4.742;2023-03-14T09:34:41;99529.88;;;11.98;100.00
54882;BME280;40775;51.448;4.742;2023-03-14T09:37:08;99543.13;;;11.86;100.00
54882;BME280;40775;51.448;4.742;2023-03-14T09:39:35;99554.19;;;12.35;100.00
54882;BME280;40775;51.448;4.742;2023-03-14T09:42:06;99544.28;;;12.66;100.00
54882;BME280;40775;51.448;4.742;2023-03-14T09:44:39;99556.44;;;12.79;100.00
54882;BME280;40775;51.448;4.742;2023-03-14T09:47:12;99577.19;;;13.11;100.00
54882;BME280;40775;51.448;4.742;2023-03-14T09:49:41;99577.97;;;13.24;100.00
54882;BME280;40775;51.448;4.742;2023-03-14T09:52:35;99584.94;;;13.29;100.00
54882;BME280;40775;51.448;4.742;2023-03-14T09:57:39;99632.31;;;12.22;100.00
54882;BME280;40775;51.448;4.742;2023-03-14T10:00:22;99637.41;;;12.51;100.00
54882;BME280;40775;51.448;4.742;2023-03-14T10:02:56;99643.63;;;12.43;100.00
54882;BME280;40775;51.448;4.742;2023-03-14T10:05:26;99651.75;;;11.98;100.00
54882;BME280;40775;51.448;4.742;2023-03-14T10:07:56;99659.47;;;12.29;100.00
54882;BME280;40775;51.448;4.742;2023-03-14T10:10:25;99662.69;;;12.75;100.00
54882;BME280;40775;51.448;4.742;2023-03-14T10:15:38;99685.22;;;13.17;100.00
54882;BME280;40775;51.448;4.742;2023-03-14T10:18:11;99678.06;;;13.30;100.00
54882;BME280;40775;51.448;4.742;2023-03-14T10:20:46;99695.63;;;13.31;100.00
54882;BME280;40775;51.448;4.742;2023-03-14T10:25:45;99701.75;;;13.32;100.00
54882;BME280;40775;51.448;4.742;2023-03-14T10:28:31;99718.03;;;12.69;100.00
54882;BME280;40775;51.448;4.742;2023-03-14T10:31:00;99722.09;;;13.19;100.00
54882;BME280;40775;51.448;4.742;2023-03-14T10:33:31;99742.19;;;13.32;100.00
54882;BME280;40775;51.448;4.742;2023-03-14T10:38:43;99757.69;;;13.64;100.00
54882;BME280;40775;51.448;4.742;2023-03-14T10:41:23;99775.47;;;13.41;100.00
54882;BME280;40775;51.448;4.742;2023-03-14T10:43:55;99782.78;;;14.06;100.00
54882;BME280;40775;51.448;4.742;2023-03-14T10:46:25;99788.16;;;13.99;100.00
54882;BME280;40775;51.448;4.742;2023-03-14T10:48:54;99800.16;;;14.24;100.00
54882;BME280;40775;51.448;4.742;2023-03-14T10:51:29;99819.25;;;13.61;100.00
54882;BME280;40775;51.448;4.742;2023-03-14T10:56:35;99819.25;;;13.61;100.00
54882;BME280;40775;51.448;4.742;2023-03-14T10:59:10;99816.41;;;13.86;100.00
54882;BME280;40775;51.448;4.742;2023-03-14T11:04:56;99874.19;;;12.80;100.00
54882;BME280;40775;51.448;4.742;2023-03-14T11:07:44;99884.69;;;12.95;100.00
54882;BME280;40775;51.448;4.742;2023-03-14T11:10:34;99889.84;;;13.17;100.00
54882;BME280;40775;51.448;4.742;2023-03-14T11:30:54;99941.88;;;15.03;100.00
54882;BME280;40775;51.448;4.742;2023-03-14T11:33:38;99957.69;;;15.09;100.00
54882;BME280;40775;51.448;4.742;2023-03-14T11:36:11;99977.75;;;14.44;100.00
54882;BME280;40775;51.448;4.742;2023-03-14T11:38:57;99981.09;;;13.48;100.00
54882;BME280;40775;51.448;4.742;2023-03-14T11:41:42;99984.09;;;14.25;100.00
54882;BME280;40775;51.448;4.742;2023-03-14T11:47:32;100014.38;;;13.63;100.00
54882;BME280;40775;51.448;4.742;2023-03-14T11:52:49;100017.34;;;12.23;100.00
54882;BME280;40775;51.448;4.742;2023-03-14T11:55:28;100016.16;;;13.61;100.00
54882;BME280;40775;51.448;4.742;2023-03-14T11:58:05;100015.16;;;13.83;100.00
54882;BME280;40775;51.448;4.742;2023-03-14T12:00:38;100025.19;;;14.57;100.00
54882;BME280;40775;51.448;4.742;2023-03-14T12:03:34;100021.09;;;14.14;100.00
54882;BME280;40775;51.448;4.742;2023-03-14T12:06:34;100034.72;;;14.73;100.00
54882;BME280;40775;51.448;4.742;2023-03-14T12:09:03;100036.28;;;14.94;100.00
54882;BME280;40775;51.448;4.742;2023-03-14T12:14:34;100047.00;;;14.75;100.00
54882;BME280;40775;51.448;4.742;2023-03-14T12:17:36;100059.09;;;13.87;100.00
54882;BME280;40775;51.448;4.742;2023-03-14T12:20:25;100049.50;;;13.77;100.00
54882;BME280;40775;51.448;4.742;2023-03-14T12:22:55;100064.31;;;14.00;100.00
54882;BME280;40775;51.448;4.742;2023-03-14T12:25:27;100066.97;;;14.00;100.00
54882;BME280;40775;51.448;4.742;2023-03-14T12:28:04;100066.91;;;14.07;100.00
54882;BME280;40775;51.448;4.742;2023-03-14T12:30:42;100071.94;;;14.45;100.00
54882;BME280;40775;51.448;4.742;2023-03-14T12:35:50;100087.81;;;14.36;100.00
54882;BME280;40775;51.448;4.742;2023-03-14T12:41:37;100091.03;;;13.17;96.44
54882;BME280;40775;51.448;4.742;2023-03-14T12:46:59;100109.19;;;13.93;96.18
54882;BME280;40775;51.448;4.742;2023-03-14T12:49:31;100103.94;;;13.87;99.49
54882;BME280;40775;51.448;4.742;2023-03-14T12:52:00;100110.63;;;14.56;100.00
54882;BME280;40775;51.448;4.742;2023-03-14T12:54:49;100121.78;;;14.88;100.00
54882;BME280;40775;51.448;4.742;2023-03-14T13:00:31;100124.25;;;13.67;81.11
54882;BME280;40775;51.448;4.742;2023-03-14T13:06:01;100140.19;;;13.30;59.90
54882;BME280;40775;51.448;4.742;2023-03-14T13:11:16;100154.25;;;13.46;63.97
54882;BME280;40775;51.448;4.742;2023-03-14T13:13:52;100158.41;;;14.04;83.72
54882;BME280;40775;51.448;4.742;2023-03-14T13:16:21;100178.84;;;12.64;51.25
54882;BME280;40775;51.448;4.742;2023-03-14T13:19:00;100170.94;;;13.45;55.48
54882;BME280;40775;51.448;4.742;2023-03-14T13:21:35;100173.44;;;13.83;59.26
54882;BME280;40775;51.448;4.742;2023-03-14T13:24:07;100172.59;;;13.80;58.34
54882;BME280;40775;51.448;4.742;2023-03-14T13:26:45;100188.28;;;14.12;58.20
54882;BME280;40775;51.448;4.742;2023-03-14T13:31:48;100193.53;;;14.16;56.54
54882;BME280;40775;51.448;4.742;2023-03-14T13:34:15;100216.16;;;14.68;87.14
54882;BME280;40775;51.448;4.742;2023-03-14T13:36:43;100218.25;;;13.94;61.53
54882;BME280;40775;51.448;4.742;2023-03-14T13:39:17;100239.44;;;12.78;49.88
54882;BME280;40775;51.448;4.742;2023-03-14T13:41:46;100248.19;;;12.71;47.13
54882;BME280;40775;51.448;4.742;2023-03-14T13:44:38;100245.59;;;12.88;47.14
54882;BME280;40775;51.448;4.742;2023-03-14T13:47:11;100251.78;;;13.29;48.30
54882;BME280;40775;51.448;4.742;2023-03-14T13:49:40;100263.22;;;13.18;47.56
54882;BME280;40775;51.448;4.742;2023-03-14T13:52:36;100269.38;;;13.27;49.45
54882;BME280;40775;51.448;4.742;2023-03-14T13:55:06;100280.78;;;13.58;50.84
54882;BME280;40775;51.448;4.742;2023-03-14T13:57:48;100289.53;;;13.10;51.15
54882;BME280;40775;51.448;4.742;2023-03-14T14:00:25;100304.38;;;12.79;53.01
54882;BME280;40775;51.448;4.742;2023-03-14T14:02:56;100303.41;;;12.45;53.15
54882;BME280;40775;51.448;4.742;2023-03-14T14:05:28;100315.81;;;12.77;55.52
54882;BME280;40775;51.448;4.742;2023-03-14T14:07:56;100330.66;;;12.59;56.08
54882;BME280;40775;51.448;4.742;2023-03-14T14:10:25;100341.13;;;12.38;60.06
54882;BME280;40775;51.448;4.742;2023-03-14T14:13:02;100336.00;;;12.73;58.97
54882;BME280;40775;51.448;4.742;2023-03-14T14:15:32;100348.38;;;13.00;60.52
54882;BME280;40775;51.448;4.742;2023-03-14T14:18:07;100362.16;;;12.35;59.66
54882;BME280;40775;51.448;4.742;2023-03-14T14:20:46;100371.84;;;12.45;56.63